Time;durP1;ratioP1;P1;durP2;ratioP2;P2;SDS_P1;SDS_P2;PMS_P1;PMS_P2;Temp;Humidity;BMP_temperature;BMP_pressure;BME280_temperature;BME280_humidity;BME280_pressure;Samples;Min_cycle;Max_cycle;Signal;HPM_P1;HPM_P2
2021/05/15 00:12:30;;;;;;;3.77;2.40;;;;;;;18.51;45.49;100219.09;31358995;28;20289;-61
2021/05/15 00:27:31;;;;;;;4.30;2.30;;;;;;;18.87;44.71;100210.59;31366910;28;20295;-60
2021/05/15 00:42:33;;;;;;;5.73;2.60;;;;;;;19.04;44.78;100200.16;31366926;28;20027;-57
2021/05/15 00:57:34;;;;;;;3.05;1.90;;;;;;;19.14;44.79;100205.38;31365496;28;20287;-57
2021/05/15 01:12:43;;;;;;;4.97;2.58;;;;;;;19.20;44.86;100204.81;31361459;28;20029;-61
2021/05/15 01:27:44;;;;;;;3.38;2.00;;;;;;;19.27;44.64;100193.69;31403905;28;20052;-60
2021/05/15 01:42:45;;;;;;;4.72;2.30;;;;;;;19.31;44.60;100195.03;31483221;28;20036;-59
2021/05/15 01:57:47;;;;;;;3.80;2.10;;;;;;;19.31;44.54;100193.25;31483432;28;20397;-60
2021/05/15 02:12:48;;;;;;;4.28;2.20;;;;;;;19.33;44.71;100193.09;31483787;28;20283;-61
2021/05/15 02:27:49;;;;;;;4.97;2.38;;;;;;;19.34;44.55;100178.97;31464935;28;20052;-58
2021/05/15 02:42:50;;;;;;;3.67;2.17;;;;;;;19.35;44.82;100165.63;31379680;28;20368;-60
2021/05/15 02:57:51;;;;;;;2.85;1.95;;;;;;;19.35;44.85;100143.72;31379914;28;20851;-60
2021/05/15 03:12:53;;;;;;;3.47;2.35;;;;;;;19.36;44.83;100135.66;31377756;28;20025;-60
2021/05/15 03:27:54;;;;;;;3.90;1.88;;;;;;;19.37;44.85;100123.31;31417185;28;20070;-58
2021/05/15 03:42:56;;;;;;;2.80;1.83;;;;;;;19.40;44.77;100115.09;31499278;28;20037;-60
2021/05/15 03:57:57;;;;;;;3.20;2.00;;;;;;;19.45;44.75;100111.06;31499359;28;20313;-60
2021/05/15 04:13:05;;;;;;;4.83;2.17;;;;;;;19.51;44.58;100109.63;31499385;28;20048;-60
2021/05/15 04:28:06;;;;;;;4.72;2.20;;;;;;;19.55;44.40;100125.97;31451166;28;20349;-58
2021/05/15 04:43:07;;;;;;;4.07;2.22;;;;;;;19.56;44.42;100127.63;31370985;28;20459;-60
2021/05/15 04:58:08;;;;;;;2.87;2.03;;;;;;;19.63;44.56;100131.31;31369217;28;20033;-61
2021/05/15 05:13:09;;;;;;;3.07;1.83;;;;;;;19.74;44.12;100146.94;31254967;28;20284;-61
2021/05/15 05:28:13;;;;;;;3.60;2.13;;;;;;;19.82;43.93;100141.75;31335215;28;20297;-60
2021/05/15 05:43:14;;;;;;;3.13;2.10;;;;;;;19.91;43.95;100147.94;31488639;28;20337;-61
2021/05/15 05:58:16;;;;;;;2.80;1.70;;;;;;;19.96;43.66;100158.03;31492819;28;20586;-60
2021/05/15 06:13:18;;;;;;;3.00;2.13;;;;;;;20.04;43.69;100158.09;31489976;28;20521;-60
2021/05/15 06:28:19;;;;;;;4.45;2.20;;;;;;;20.15;43.57;100167.59;31435701;28;20650;-59
2021/05/15 06:43:20;;;;;;;3.33;2.00;;;;;;;20.24;43.39;100154.31;31383301;28;20058;-58
2021/05/15 06:58:21;;;;;;;3.17;1.70;;;;;;;20.40;42.98;100160.69;31430458;28;20041;-59
2021/05/15 07:13:22;;;;;;;4.13;1.90;;;;;;;20.42;43.19;100142.91;31379773;28;20055;-59
2021/05/15 07:28:23;;;;;;;4.07;2.23;;;;;;;20.50;42.98;100151.72;31424239;28;20294;-58
2021/05/15 07:43:26;;;;;;;3.60;2.13;;;;;;;20.60;43.00;100135.78;31377151;28;20279;-57
2021/05/15 07:58:26;;;;;;;2.75;1.85;;;;;;;20.66;42.90;100119.31;31392639;28;20788;-59
2021/05/15 08:13:27;;;;;;;3.73;2.00;;;;;;;20.74;42.74;100123.81;31473332;28;20041;-59
2021/05/15 08:28:29;;;;;;;8.07;4.20;;;;;;;20.85;41.63;100112.97;31418338;28;20309;-59
2021/05/15 08:43:30;;;;;;;8.13;6.35;;;;;;;20.60;40.41;100105.94;31395524;28;20279;-59
2021/05/15 08:58:31;;;;;;;8.02;6.20;;;;;;;20.71;40.17;100095.09;31362166;28;20044;-59
2021/05/15 09:13:32;;;;;;;7.78;6.40;;;;;;;21.26;39.39;100097.28;31374131;28;20025;-60
2021/05/15 09:28:46;;;;;;;6.37;5.33;;;;;;;21.24;38.87;100093.97;31374543;28;20047;-61
2021/05/15 09:43:51;;;;;;;5.03;4.28;;;;;;;21.29;37.96;100078.44;31441540;28;20280;-60
2021/05/15 09:58:52;;;;;;;6.47;3.40;;;;;;;21.72;38.90;100065.16;31318842;28;20052;-60
2021/05/15 10:13:53;;;;;;;5.00;3.00;;;;;;;21.93;39.01;100041.66;31333968;28;20056;-60
2021/05/15 10:29:05;;;;;;;6.73;3.00;;;;;;;22.14;39.89;100035.81;31311319;28;20318;-60
2021/05/15 10:44:12;;;;;;;8.00;3.40;;;;;;;22.10;37.96;100007.22;31315547;28;20637;-59
2021/05/15 10:59:18;;;;;;;6.18;2.47;;;;;;;22.40;38.07;100008.31;31357512;28;20037;-60
2021/05/15 11:14:26;;;;;;;;;;;;;;;22.22;38.70;99989.19;31349159;28;20079;-59
2021/05/15 11:29:33;;;;;;;6.57;2.70;;;;;;;21.93;39.36;99999.31;31373295;28;19971;-63
2021/05/15 11:44:36;;;;;;;5.78;2.53;;;;;;;21.80;39.49;100000.81;31320621;28;20038;-62
2021/05/15 11:59:37;;;;;;;3.33;0.75;;;;;;;21.04;35.80;99982.44;31304667;28;20057;-62
2021/05/15 12:14:42;;;;;;;2.87;1.40;;;;;;;21.71;36.60;99953.22;31360013;28;20032;-67
2021/05/15 12:29:44;;;;;;;3.93;1.20;;;;;;;21.04;35.96;99937.50;31363103;28;20653;-66
2021/05/15 12:44:45;;;;;;;3.03;1.35;;;;;;;20.77;38.32;99932.53;31335268;28;20036;-66
2021/05/15 12:59:46;;;;;;;2.47;1.10;;;;;;;20.71;35.93;99908.41;31332523;28;20045;-65
2021/05/15 13:14:47;;;;;;;11.82;6.70;;;;;;;20.84;38.62;99896.53;31330967;28;20715;-67
2021/05/15 13:29:48;;;;;;;11.32;5.00;;;;;;;21.16;39.78;99887.00;31324768;28;20494;-65
2021/05/15 13:44:49;;;;;;;12.03;3.97;;;;;;;20.72;41.20;99888.13;31322328;28;20017;-66
2021/05/15 13:59:50;;;;;;;11.00;3.70;;;;;;;20.55;43.21;99875.84;31324924;28;20295;-70
2021/05/15 14:14:51;;;;;;;7.13;3.10;;;;;;;20.43;44.08;99857.69;31336594;28;20306;-70
2021/05/15 14:29:52;;;;;;;8.87;3.20;;;;;;;20.53;43.91;99835.59;31363497;28;20291;-66
2021/05/15 14:44:53;;;;;;;5.88;2.88;;;;;;;20.57;44.05;99824.59;31343709;28;20288;-67
2021/05/15 14:59:56;;;;;;;7.67;3.30;;;;;;;20.65;43.66;99814.00;31350335;28;20029;-66
2021/05/15 15:14:59;;;;;;;8.60;2.60;;;;;;;20.68;43.94;99795.22;31337996;28;20291;-69
2021/05/15 15:30:00;;;;;;;9.25;2.67;;;;;;;20.61;44.28;99799.47;31354820;28;20045;-67
2021/05/15 15:45:01;;;;;;;5.35;2.92;;;;;;;20.68;44.14;99792.56;31324738;28;20079;-68
2021/05/15 16:00:04;;;;;;;11.82;3.10;;;;;;;20.66;44.15;99786.63;31375083;28;20037;-68
2021/05/15 16:15:06;;;;;;;8.45;2.92;;;;;;;20.64;45.27;99770.13;31362117;28;20029;-68
2021/05/15 16:30:07;;;;;;;7.18;2.90;;;;;;;20.65;45.13;99757.75;31367213;28;20095;-68
2021/05/15 16:45:08;;;;;;;8.43;2.83;;;;;;;20.68;45.19;99752.97;31375413;28;20490;-73
2021/05/15 17:00:10;;;;;;;6.07;2.20;;;;;;;20.75;44.47;99755.75;31338807;28;20036;-66
2021/05/15 17:15:11;;;;;;;7.43;2.45;;;;;;;20.75;44.84;99747.81;31321080;28;20087;-66
2021/05/15 17:30:12;;;;;;;7.90;3.10;;;;;;;20.79;44.96;99757.06;31349542;28;20103;-66
2021/05/15 17:45:14;;;;;;;5.85;2.30;;;;;;;20.74;43.99;99753.28;31330300;28;20029;-69
2021/05/15 18:00:15;;;;;;;8.13;2.13;;;;;;;20.37;37.08;99746.66;31348507;28;20083;-68
2021/05/15 18:15:16;;;;;;;3.72;1.17;;;;;;;19.93;35.87;99736.34;31348404;28;20029;-56
2021/05/15 18:30:18;;;;;;;4.60;1.20;;;;;;;19.60;35.88;99741.50;31353679;28;20051;-58
2021/05/15 18:45:19;;;;;;;2.92;1.05;;;;;;;19.31;35.95;99757.66;31380248;28;20294;-58
2021/05/15 19:00:20;;;;;;;3.03;1.20;;;;;;;19.09;36.56;99766.94;31442674;28;20059;-58
2021/05/15 19:15:21;;;;;;;2.90;1.73;;;;;;;18.96;37.08;99780.50;31365958;28;20433;-58
2021/05/15 19:30:22;;;;;;;3.13;2.03;;;;;;;19.24;39.19;99778.53;31391097;28;20044;-59
2021/05/15 19:45:23;;;;;;;2.38;1.77;;;;;;;19.59;39.87;99784.66;31365038;28;20782;-59
2021/05/15 20:00:24;;;;;;;2.95;1.90;;;;;;;19.73;40.56;99763.00;31348024;28;20037;-59
2021/05/15 20:15:29;;;;;;;3.03;1.57;;;;;;;19.81;40.81;99768.31;31351774;28;20037;-59
2021/05/15 20:30:30;;;;;;;3.25;1.70;;;;;;;19.90;40.85;99752.50;31352796;28;20303;-60
2021/05/15 20:45:32;;;;;;;3.30;1.80;;;;;;;19.95;41.05;99740.50;31340639;28;20482;-59
2021/05/15 21:00:33;;;;;;;3.67;1.50;;;;;;;19.99;41.33;99740.97;31309420;28;20348;-58
2021/05/15 21:15:34;;;;;;;2.73;1.63;;;;;;;20.00;41.65;99748.75;31341011;28;20040;-58
2021/05/15 21:30:37;;;;;;;4.07;1.50;;;;;;;19.95;41.76;99756.31;31343176;28;20298;-60
2021/05/15 21:45:38;;;;;;;3.15;1.77;;;;;;;19.96;41.71;99752.69;31303238;28;20419;-56
2021/05/15 22:00:46;;;;;;;2.50;1.47;;;;;;;19.95;41.98;99747.56;31337040;28;20037;-58
2021/05/15 22:15:48;;;;;;;2.70;1.50;;;;;;;19.93;41.99;99750.38;31342201;28;20349;-57
2021/05/15 22:30:49;;;;;;;2.47;1.55;;;;;;;19.93;42.14;99754.81;31326063;28;20179;-54
2021/05/15 22:45:50;;;;;;;3.90;1.50;;;;;;;19.90;42.31;99739.31;31349810;28;20037;-55
2021/05/15 23:00:51;;;;;;;2.85;1.55;;;;;;;19.90;42.44;99739.31;31342525;28;20049;-57
2021/05/15 23:15:53;;;;;;;3.00;1.60;;;;;;;19.88;42.55;99727.13;31348908;28;20040;-57
2021/05/15 23:30:54;;;;;;;3.63;1.58;;;;;;;19.87;42.82;99714.91;31328222;28;20745;-55
2021/05/15 23:45:55;;;;;;;2.88;1.65;;;;;;;19.86;43.54;99715.91;31335630;28;20029;-56
